Time;durP1;ratioP1;P1;durP2;ratioP2;P2;SDS_P1;SDS_P2;PMS_P1;PMS_P2;Temp;Humidity;BMP_temperature;BMP_pressure;BME280_temperature;BME280_humidity;BME280_pressure;Samples;Min_cycle;Max_cycle;Signal;HPM_P1;HPM_P2
2023/04/09 00:01:38;;;;;;;0.40;0.40;;;;;;;9.20;100.00;99784.63;5025399;28;20197;-61
2023/04/09 00:04:05;;;;;;;0.40;0.40;;;;;;;9.11;100.00;99780.50;5019156;28;20705;-61
2023/04/09 00:06:31;;;;;;;0.50;0.50;;;;;;;9.03;100.00;99784.94;5016226;28;20201;-61
2023/04/09 00:08:58;;;;;;;0.53;0.53;;;;;;;9.07;100.00;99786.59;5013444;28;20225;-61
2023/04/09 00:11:25;;;;;;;0.50;0.50;;;;;;;9.02;100.00;99793.47;5027570;28;20208;-61
2023/04/09 00:13:52;;;;;;;0.60;0.60;;;;;;;9.08;100.00;99793.38;5016569;28;20190;-61
2023/04/09 00:16:20;;;;;;;0.50;0.50;;;;;;;9.00;100.00;99795.22;5021665;28;20210;-61
2023/04/09 00:18:47;;;;;;;1.00;0.90;;;;;;;8.93;100.00;99798.75;5018268;28;20213;-61
2023/04/09 00:21:15;;;;;;;0.50;0.50;;;;;;;8.92;100.00;99802.16;5032751;28;20251;-61
2023/04/09 00:23:41;;;;;;;0.57;0.57;;;;;;;8.68;100.00;99779.59;5020468;28;20645;-61
2023/04/09 00:26:08;;;;;;;0.50;0.50;;;;;;;8.77;100.00;99807.53;5027082;28;20193;-61
2023/04/09 00:28:36;;;;;;;0.60;0.60;;;;;;;8.69;100.00;99809.41;5032297;28;20221;-61
2023/04/09 00:31:03;;;;;;;0.63;0.63;;;;;;;8.55;100.00;99783.22;5025073;28;20201;-61
2023/04/09 00:33:31;;;;;;;0.73;0.73;;;;;;;8.69;100.00;99817.88;5024341;28;20193;-61
2023/04/09 00:35:58;;;;;;;0.50;0.50;;;;;;;8.70;100.00;99821.28;5020186;28;20198;-61
2023/04/09 00:38:24;;;;;;;0.50;0.50;;;;;;;8.68;100.00;99816.22;5020449;28;20272;-61
2023/04/09 00:40:51;;;;;;;0.50;0.50;;;;;;;8.60;100.00;99814.63;5012641;28;20194;-61
2023/04/09 00:43:18;;;;;;;0.50;0.50;;;;;;;8.65;100.00;99821.38;5023527;28;20250;-62
2023/04/09 00:45:45;;;;;;;0.40;0.40;;;;;;;8.56;100.00;99823.22;5028913;28;20262;-61
2023/04/09 00:48:13;;;;;;;1.10;1.10;;;;;;;8.65;100.00;99823.09;5020950;28;20248;-61
2023/04/09 00:50:42;;;;;;;0.50;0.50;;;;;;;8.65;100.00;99831.59;5013948;28;20209;-61
2023/04/09 00:53:10;;;;;;;0.93;0.93;;;;;;;8.59;100.00;99828.28;5023588;28;20635;-61
2023/04/09 00:55:40;;;;;;;0.50;0.50;;;;;;;8.59;100.00;99823.19;5031312;28;20322;-61
2023/04/09 00:58:06;;;;;;;0.50;0.50;;;;;;;8.41;100.00;99798.75;5027209;28;20194;-59
2023/04/09 01:00:33;;;;;;;0.40;0.40;;;;;;;8.56;100.00;99824.09;5014487;28;20210;-58
2023/04/09 01:03:00;;;;;;;0.60;0.60;;;;;;;8.42;100.00;99826.84;5026555;28;20250;-58
2023/04/09 01:05:34;;;;;;;0.50;0.50;;;;;;;8.31;100.00;99828.69;5027083;28;20201;-59
2023/04/09 01:08:12;;;;;;;0.50;0.50;;;;;;;8.16;100.00;99803.34;5028308;28;20689;-57
2023/04/09 01:10:45;;;;;;;0.90;0.90;;;;;;;8.29;100.00;99827.88;5024177;28;20193;-59
2023/04/09 01:13:18;;;;;;;0.47;0.47;;;;;;;8.28;100.00;99807.44;5015951;28;20194;-60
2023/04/09 01:15:50;;;;;;;0.43;0.43;;;;;;;8.28;100.00;99823.63;5020332;28;20213;-60
2023/04/09 01:18:25;;;;;;;0.90;0.90;;;;;;;8.27;100.00;99821.91;5013207;28;20198;-60
2023/04/09 01:20:58;;;;;;;0.60;0.60;;;;;;;8.30;100.00;99824.44;5024409;28;20567;-60
2023/04/09 01:23:37;;;;;;;0.70;0.70;;;;;;;8.29;100.00;99825.31;5018861;28;20272;-60
2023/04/09 01:26:10;;;;;;;0.50;0.50;;;;;;;8.36;100.00;99833.75;5011861;28;20701;-60
2023/04/09 01:28:43;;;;;;;0.63;0.63;;;;;;;8.43;100.00;99820.03;5027520;28;20232;-60
2023/04/09 01:31:13;;;;;;;0.50;0.50;;;;;;;8.51;100.00;99830.09;5015581;28;20205;-60
2023/04/09 01:33:41;;;;;;;0.50;0.50;;;;;;;8.39;100.00;99839.66;5019353;28;20229;-60
2023/04/09 01:36:08;;;;;;;0.50;0.50;;;;;;;8.32;100.00;99832.09;5031093;28;20193;-60
2023/04/09 01:38:36;;;;;;;0.60;0.60;;;;;;;8.18;100.00;99827.13;5021658;28;20670;-60
2023/04/09 01:41:04;;;;;;;0.50;0.50;;;;;;;8.11;100.00;99822.97;5012178;28;20202;-60
2023/04/09 01:43:32;;;;;;;0.50;0.50;;;;;;;8.11;100.00;99825.53;5025463;28;20763;-60
2023/04/09 01:46:01;;;;;;;0.50;0.50;;;;;;;7.93;100.00;99828.34;5017783;28;20275;-60
2023/04/09 01:48:29;;;;;;;0.50;0.50;;;;;;;7.84;100.00;99825.91;5017541;28;20197;-60
2023/04/09 01:50:56;;;;;;;0.50;0.50;;;;;;;7.70;100.00;99813.31;5022345;28;20313;-60
2023/04/09 01:53:27;;;;;;;0.50;0.50;;;;;;;7.79;100.00;99835.31;5022107;28;20573;-60
2023/04/09 01:55:53;;;;;;;0.60;0.60;;;;;;;7.81;100.00;99825.94;5025138;28;20205;-60
2023/04/09 01:58:20;;;;;;;0.60;0.60;;;;;;;8.00;100.00;99836.75;5021355;28;20198;-60
2023/04/09 02:00:49;;;;;;;0.40;0.40;;;;;;;8.07;100.00;99844.31;5016018;28;20329;-60
2023/04/09 02:03:22;;;;;;;0.50;0.50;;;;;;;8.10;100.00;99844.28;5026117;28;20229;-60
2023/04/09 02:05:55;;;;;;;0.57;0.57;;;;;;;8.13;100.00;99843.41;5030167;28;20232;-60
2023/04/09 02:08:24;;;;;;;0.40;0.40;;;;;;;8.23;100.00;99845.81;5030634;28;20209;-60
2023/04/09 02:10:56;;;;;;;0.60;0.60;;;;;;;8.26;100.00;99845.78;5031292;28;20279;-60
2023/04/09 02:13:24;;;;;;;0.53;0.53;;;;;;;8.24;100.00;99842.38;5030555;28;20194;-61
2023/04/09 02:15:52;;;;;;;0.50;0.50;;;;;;;8.24;100.00;99839.00;5029785;28;20646;-61
2023/04/09 02:18:26;;;;;;;0.40;0.40;;;;;;;8.21;100.00;99844.97;5030433;28;20205;-61
2023/04/09 02:20:53;;;;;;;0.50;0.50;;;;;;;8.13;100.00;99844.25;5030257;28;20198;-61
2023/04/09 02:23:20;;;;;;;0.40;0.40;;;;;;;8.13;100.00;99849.34;5030860;28;20589;-61
2023/04/09 02:25:47;;;;;;;0.50;0.50;;;;;;;8.14;100.00;99850.19;5030190;28;20209;-61
2023/04/09 02:28:14;;;;;;;0.60;0.60;;;;;;;8.16;100.00;99851.88;5030305;28;20208;-61
2023/04/09 02:30:41;;;;;;;0.50;0.50;;;;;;;8.16;100.00;99849.31;5030428;28;20201;-62
2023/04/09 02:33:07;;;;;;;0.60;0.60;;;;;;;8.15;100.00;99845.06;5030647;28;20635;-61
2023/04/09 02:35:36;;;;;;;0.60;0.60;;;;;;;8.21;100.00;99850.06;5030149;28;20205;-61
2023/04/09 02:38:03;;;;;;;0.60;0.60;;;;;;;8.11;100.00;99848.50;5029480;28;20690;-61
2023/04/09 02:40:30;;;;;;;0.50;0.50;;;;;;;7.88;100.00;99847.97;5030701;28;20244;-60
2023/04/09 02:42:57;;;;;;;0.60;0.60;;;;;;;7.84;100.00;99843.75;5030034;28;20262;-60
2023/04/09 02:45:24;;;;;;;0.50;0.50;;;;;;;7.77;100.00;99831.94;5030552;28;20217;-60
2023/04/09 02:47:51;;;;;;;0.70;0.70;;;;;;;7.77;100.00;99847.25;5030038;28;20590;-60
2023/04/09 02:50:17;;;;;;;0.73;0.73;;;;;;;7.76;100.00;99850.66;5030520;28;20630;-60
2023/04/09 02:52:47;;;;;;;0.57;0.57;;;;;;;7.70;100.00;99849.03;5030334;28;20723;-60
2023/04/09 02:55:14;;;;;;;0.80;0.80;;;;;;;7.63;100.00;99847.41;5030165;28;20209;-61
2023/04/09 02:57:41;;;;;;;0.60;0.60;;;;;;;7.55;100.00;99844.09;5031219;28;20228;-61
2023/04/09 03:00:09;;;;;;;0.87;0.87;;;;;;;7.47;100.00;99842.47;5033829;28;20205;-61
2023/04/09 03:02:36;;;;;;;0.50;0.50;;;;;;;7.42;100.00;99849.34;5034540;28;20775;-60
2023/04/09 03:05:03;;;;;;;0.60;0.60;;;;;;;7.44;100.00;99850.16;5032522;28;20232;-61
2023/04/09 03:07:30;;;;;;;0.50;0.50;;;;;;;7.33;100.00;99852.84;5034005;28;20217;-61
2023/04/09 03:09:58;;;;;;;0.60;0.60;;;;;;;7.30;100.00;99843.50;5034041;28;20567;-60
2023/04/09 03:12:25;;;;;;;1.10;1.10;;;;;;;7.27;100.00;99838.44;5034139;28;20205;-61
2023/04/09 03:14:51;;;;;;;0.50;0.50;;;;;;;7.27;100.00;99846.06;5034116;28;20628;-60
2023/04/09 03:17:18;;;;;;;0.60;0.60;;;;;;;7.16;100.00;99840.25;5033692;28;20612;-61
2023/04/09 03:19:45;;;;;;;0.57;0.57;;;;;;;7.07;100.00;99826.75;5034249;28;20328;-61
2023/04/09 03:22:12;;;;;;;0.60;0.60;;;;;;;7.08;100.00;99843.72;5032795;28;20201;-61
2023/04/09 03:24:38;;;;;;;0.50;0.50;;;;;;;7.01;100.00;99845.47;5033882;28;20575;-61
2023/04/09 03:27:07;;;;;;;0.80;0.80;;;;;;;6.93;100.00;99846.41;5033546;28;20197;-60
2023/04/09 03:29:33;;;;;;;0.60;0.60;;;;;;;6.86;100.00;99845.59;5033653;28;20562;-60
2023/04/09 03:32:00;;;;;;;0.83;0.83;;;;;;;6.85;100.00;99856.66;5033630;28;20324;-60
2023/04/09 03:34:27;;;;;;;0.80;0.80;;;;;;;6.89;100.00;99850.66;5030987;28;20263;-61
2023/04/09 03:36:54;;;;;;;0.57;0.57;;;;;;;6.85;100.00;99854.94;5033511;28;20223;-60
2023/04/09 03:39:21;;;;;;;0.53;0.53;;;;;;;6.78;100.00;99848.22;5033431;28;20248;-60
2023/04/09 03:41:47;;;;;;;0.67;0.67;;;;;;;6.80;100.00;99850.75;5033353;28;20205;-61
2023/04/09 03:44:15;;;;;;;0.63;0.63;;;;;;;6.71;100.00;99838.94;5033272;28;20255;-61
2023/04/09 03:46:42;;;;;;;0.93;0.93;;;;;;;6.80;100.00;99858.41;5033585;28;20198;-60
2023/04/09 03:49:09;;;;;;;0.63;0.63;;;;;;;6.84;100.00;99863.47;5033195;28;20213;-61
2023/04/09 03:51:36;;;;;;;0.53;0.53;;;;;;;6.83;100.00;99861.78;5031126;28;20669;-60
2023/04/09 03:54:03;;;;;;;0.83;0.83;;;;;;;6.77;100.00;99848.22;5033154;28;20240;-61
2023/04/09 03:56:29;;;;;;;0.70;0.70;;;;;;;6.90;100.00;99860.03;5033171;28;20204;-60
2023/04/09 03:58:56;;;;;;;0.50;0.50;;;;;;;6.88;100.00;99863.44;5033189;28;20670;-61
2023/04/09 04:01:24;;;;;;;0.60;0.60;;;;;;;6.94;100.00;99864.25;5032976;28;20206;-61
2023/04/09 04:03:51;;;;;;;0.60;0.60;;;;;;;6.95;100.00;99870.19;5033146;28;20284;-60
2023/04/09 04:06:18;;;;;;;0.60;0.60;;;;;;;6.94;100.00;99859.16;5032818;28;20198;-61
2023/04/09 04:08:44;;;;;;;1.00;1.00;;;;;;;6.96;100.00;99864.22;5032470;28;20263;-61
2023/04/09 04:11:11;;;;;;;0.70;0.70;;;;;;;6.98;100.00;99876.06;5032937;28;20205;-61
2023/04/09 04:13:38;;;;;;;0.77;0.77;;;;;;;7.01;100.00;99875.22;5033027;28;20206;-61
2023/04/09 04:16:08;;;;;;;0.70;0.70;;;;;;;6.84;100.00;99847.34;5032930;28;20189;-60
2023/04/09 04:18:37;;;;;;;0.77;0.77;;;;;;;6.97;100.00;99854.03;5032134;28;20228;-61
2023/04/09 04:21:04;;;;;;;0.57;0.57;;;;;;;7.09;100.00;99879.41;5032977;28;20634;-61
2023/04/09 04:23:31;;;;;;;0.50;0.50;;;;;;;7.13;100.00;99875.97;5032786;28;20202;-62
2023/04/09 04:25:57;;;;;;;0.80;0.80;;;;;;;7.15;100.00;99884.44;5032793;28;20217;-60
2023/04/09 04:28:24;;;;;;;1.43;1.43;;;;;;;7.13;100.00;99880.22;5032572;28;20243;-59
2023/04/09 04:30:51;;;;;;;0.63;0.63;;;;;;;7.14;100.00;99882.75;5032278;28;20202;-61
2023/04/09 04:33:18;;;;;;;0.60;0.60;;;;;;;7.20;100.00;99882.72;5032815;28;20209;-60
2023/04/09 04:35:46;;;;;;;0.67;0.67;;;;;;;7.21;100.00;99884.38;5031996;28;20616;-61
2023/04/09 04:38:13;;;;;;;0.60;0.60;;;;;;;7.23;100.00;99887.78;5031486;28;20209;-61
2023/04/09 04:40:39;;;;;;;0.60;0.60;;;;;;;7.26;100.00;99882.66;5032661;28;20205;-61
2023/04/09 04:43:06;;;;;;;0.53;0.53;;;;;;;7.29;100.00;99892.81;5032588;28;20201;-60
2023/04/09 04:45:33;;;;;;;0.50;0.50;;;;;;;7.32;100.00;99892.78;5031771;28;20221;-61
2023/04/09 04:48:00;;;;;;;0.50;0.50;;;;;;;7.26;100.00;99877.56;5032355;28;20220;-60
2023/04/09 04:50:26;;;;;;;0.80;0.80;;;;;;;7.30;100.00;99880.94;5032324;28;20201;-60
2023/04/09 04:52:55;;;;;;;0.60;0.60;;;;;;;7.38;100.00;99887.63;5032018;28;20197;-61
2023/04/09 04:55:21;;;;;;;0.50;0.50;;;;;;;7.34;100.00;99900.41;5031959;28;20200;-60
2023/04/09 04:57:51;;;;;;;0.73;0.73;;;;;;;7.34;100.00;99901.25;5031971;28;20670;-61
2023/04/09 05:00:17;;;;;;;0.60;0.60;;;;;;;7.32;100.00;99908.09;5032208;28;20228;-60
2023/04/09 05:02:44;;;;;;;0.60;0.60;;;;;;;7.30;100.00;99904.69;5031867;28;20237;-60
2023/04/09 05:05:11;;;;;;;0.60;0.60;;;;;;;7.18;100.00;99902.25;5031560;28;20219;-61
2023/04/09 05:07:38;;;;;;;0.87;0.87;;;;;;;7.16;100.00;99891.25;5031807;28;20251;-60
2023/04/09 05:10:08;;;;;;;0.70;0.70;;;;;;;7.24;100.00;99904.75;5032021;28;20263;-60
2023/04/09 05:12:35;;;;;;;0.60;0.60;;;;;;;7.26;100.00;99907.31;5032044;28;20201;-61
2023/04/09 05:15:02;;;;;;;0.73;0.73;;;;;;;7.34;100.00;99905.50;5031799;28;20197;-60
2023/04/09 05:17:28;;;;;;;0.73;0.73;;;;;;;7.33;100.00;99904.66;5031799;28;20271;-61
2023/04/09 05:19:56;;;;;;;0.80;0.80;;;;;;;7.37;100.00;99905.50;5030553;28;20205;-61
2023/04/09 05:22:23;;;;;;;1.43;1.43;;;;;;;7.45;100.00;99900.31;5031445;28;20585;-61
2023/04/09 05:24:50;;;;;;;0.70;0.70;;;;;;;7.46;100.00;99904.56;5031374;28;20217;-61
2023/04/09 05:27:20;;;;;;;0.90;0.90;;;;;;;7.53;100.00;99901.09;5031462;28;20193;-61
2023/04/09 05:29:47;;;;;;;0.83;0.83;;;;;;;7.62;100.00;99898.47;5031650;28;20229;-61
2023/04/09 05:32:14;;;;;;;0.70;0.70;;;;;;;7.71;100.00;99898.34;5031475;28;20235;-61
2023/04/09 05:34:41;;;;;;;0.60;0.60;;;;;;;7.73;100.00;99899.19;5031260;28;20680;-61
2023/04/09 05:37:08;;;;;;;0.60;0.60;;;;;;;7.76;100.00;99904.25;5031517;28;20212;-60
2023/04/09 05:39:35;;;;;;;0.70;0.70;;;;;;;7.74;100.00;99906.84;5031694;28;20566;-60
2023/04/09 05:42:02;;;;;;;0.60;0.60;;;;;;;7.79;100.00;99906.75;5031490;28;20346;-61
2023/04/09 05:44:30;;;;;;;1.03;1.03;;;;;;;7.81;100.00;99912.72;5031134;28;20208;-60
2023/04/09 05:46:57;;;;;;;0.50;0.50;;;;;;;7.88;100.00;99911.78;5029907;28;20657;-61
2023/04/09 05:49:24;;;;;;;0.60;0.60;;;;;;;7.83;100.00;99916.09;5029789;28;20205;-60
2023/04/09 05:51:50;;;;;;;0.60;0.60;;;;;;;7.82;100.00;99891.41;5030773;28;20209;-61
2023/04/09 05:54:17;;;;;;;0.50;0.50;;;;;;;7.82;100.00;99909.28;5030993;28;20208;-60
2023/04/09 05:56:44;;;;;;;0.57;0.57;;;;;;;7.88;100.00;99914.34;5031442;28;20769;-60
2023/04/09 05:59:11;;;;;;;0.70;0.70;;;;;;;7.92;100.00;99915.97;5030645;28;20209;-61
2023/04/09 06:01:39;;;;;;;1.03;1.03;;;;;;;7.92;100.00;99915.97;5030973;28;20285;-60
2023/04/09 06:04:06;;;;;;;0.80;0.80;;;;;;;7.93;100.00;99918.53;5025779;28;20225;-61
2023/04/09 06:06:33;;;;;;;1.07;1.07;;;;;;;8.06;100.00;99918.38;5013341;28;20214;-60
2023/04/09 06:08:59;;;;;;;0.77;0.77;;;;;;;8.11;100.00;99922.56;5017224;28;20640;-60
2023/04/09 06:11:26;;;;;;;0.70;0.70;;;;;;;8.13;100.00;99925.97;5016441;28;20213;-59
2023/04/09 06:13:53;;;;;;;0.70;0.70;;;;;;;8.04;100.00;99905.66;5016658;28;20206;-61
2023/04/09 06:16:20;;;;;;;0.50;0.50;;;;;;;8.10;100.00;99923.44;5022805;28;20209;-61
2023/04/09 06:18:49;;;;;;;0.90;0.90;;;;;;;8.27;100.00;99928.34;5013817;28;20198;-60
2023/04/09 06:21:16;;;;;;;0.60;0.60;;;;;;;8.37;100.00;99929.94;5013128;28;20701;-61
2023/04/09 06:23:43;;;;;;;0.60;0.60;;;;;;;8.33;100.00;99931.72;5013753;28;20989;-61
2023/04/09 06:26:10;;;;;;;0.60;0.60;;;;;;;8.43;100.00;99933.25;5018975;28;20221;-61
2023/04/09 06:28:37;;;;;;;0.60;0.60;;;;;;;8.48;100.00;99932.34;5012173;28;20653;-61
2023/04/09 06:31:03;;;;;;;0.83;0.83;;;;;;;8.57;100.00;99942.44;5014434;28;20209;-61
2023/04/09 06:33:30;;;;;;;0.60;0.60;;;;;;;8.63;100.00;99937.25;5019692;28;20202;-60
2023/04/09 06:35:58;;;;;;;0.67;0.67;;;;;;;8.65;100.00;99936.38;5021065;28;20201;-62
2023/04/09 06:38:25;;;;;;;0.60;0.60;;;;;;;8.80;100.00;99935.31;5011444;28;20209;-62
2023/04/09 06:40:52;;;;;;;0.53;0.53;;;;;;;8.84;100.00;99937.81;5017021;28;20231;-61
2023/04/09 06:43:19;;;;;;;0.60;0.60;;;;;;;8.88;100.00;99938.63;5021520;28;20213;-61
2023/04/09 06:45:46;;;;;;;0.70;0.70;;;;;;;8.95;100.00;99935.06;5024679;28;20221;-62
2023/04/09 06:48:13;;;;;;;0.60;0.60;;;;;;;9.00;100.00;99938.44;5026111;28;20203;-62
2023/04/09 06:50:39;;;;;;;0.60;0.60;;;;;;;9.09;100.00;99928.03;5030102;28;20212;-62
2023/04/09 06:53:07;;;;;;;0.60;0.60;;;;;;;9.25;100.00;99932.06;5017954;28;20291;-63
2023/04/09 06:55:34;;;;;;;0.50;0.50;;;;;;;9.33;100.00;99919.16;5020764;28;20206;-61
2023/04/09 06:58:02;;;;;;;2.13;2.10;;;;;;;9.44;100.00;99936.00;5022906;28;20209;-61
2023/04/09 07:00:28;;;;;;;0.50;0.50;;;;;;;9.46;100.00;99931.72;5013616;28;20202;-63
2023/04/09 07:02:55;;;;;;;0.57;0.57;;;;;;;9.54;100.00;99935.81;5023848;28;20236;-61
2023/04/09 07:05:22;;;;;;;0.50;0.50;;;;;;;9.63;100.00;99936.50;5029787;28;20705;-61
2023/04/09 07:07:49;;;;;;;0.60;0.60;;;;;;;9.72;100.00;99940.63;5029685;28;20221;-61
2023/04/09 07:10:17;;;;;;;1.20;1.20;;;;;;;9.76;100.00;99939.69;5029594;28;20205;-62
2023/04/09 07:12:44;;;;;;;0.60;0.60;;;;;;;9.70;100.00;99935.53;5029326;28;20235;-61
2023/04/09 07:15:11;;;;;;;0.50;0.50;;;;;;;9.85;100.00;99942.94;5028660;28;20208;-62
2023/04/09 07:17:38;;;;;;;0.40;0.40;;;;;;;9.91;100.00;99942.84;5026964;28;20252;-61
2023/04/09 07:20:05;;;;;;;0.50;0.50;;;;;;;10.06;100.00;99951.94;5028718;28;20201;-62
2023/04/09 07:22:32;;;;;;;0.80;0.80;;;;;;;10.09;100.00;99949.31;5029310;28;20217;-62
2023/04/09 07:24:59;;;;;;;0.50;0.50;;;;;;;10.13;100.00;99948.38;5029377;28;20212;-62
2023/04/09 07:27:28;;;;;;;0.50;0.50;;;;;;;10.29;100.00;99944.66;5028914;28;20993;-63
2023/04/09 07:29:56;;;;;;;1.20;1.20;;;;;;;10.30;100.00;99951.50;5029443;28;20371;-63
2023/04/09 07:32:23;;;;;;;0.60;0.60;;;;;;;10.33;100.00;99940.34;5029762;28;21778;-63
2023/04/09 07:34:51;;;;;;;0.80;0.80;;;;;;;10.40;100.00;99942.72;5030303;28;20206;-63
2023/04/09 07:37:19;;;;;;;0.40;0.40;;;;;;;10.37;100.00;99941.97;5029701;28;20666;-63
2023/04/09 07:39:46;;;;;;;0.83;0.83;;;;;;;10.57;100.00;99939.81;5030320;28;20284;-63
2023/04/09 07:42:13;;;;;;;0.60;0.60;;;;;;;10.70;100.00;99930.13;5030308;28;20613;-63
2023/04/09 07:44:42;;;;;;;0.60;0.60;;;;;;;10.80;100.00;99931.59;5032339;28;20670;-63
2023/04/09 07:47:10;;;;;;;0.50;0.50;;;;;;;10.92;100.00;99909.06;5033686;28;20693;-63
2023/04/09 07:49:37;;;;;;;0.57;0.57;;;;;;;11.19;100.00;99933.25;5031413;28;20197;-63
2023/04/09 07:52:05;;;;;;;0.60;0.60;;;;;;;11.42;100.00;99945.50;5033552;28;20193;-63
2023/04/09 07:54:32;;;;;;;0.50;0.50;;;;;;;11.71;100.00;99949.94;5033358;28;20590;-63
2023/04/09 07:57:00;;;;;;;0.87;0.87;;;;;;;11.74;98.44;99949.84;5031204;28;20284;-63
2023/04/09 07:59:28;;;;;;;0.40;0.40;;;;;;;11.68;98.92;99955.97;5032962;28;20225;-63
2023/04/09 08:01:56;;;;;;;0.50;0.50;;;;;;;11.82;98.62;99947.94;5033641;28;20197;-63
2023/04/09 08:04:23;;;;;;;8.23;1.23;;;;;;;12.11;97.92;99955.72;5013454;28;20226;-63
2023/04/09 08:06:50;;;;;;;0.93;0.93;;;;;;;12.40;94.82;99955.75;5015291;28;20214;-63
2023/04/09 08:09:17;;;;;;;0.70;0.70;;;;;;;12.48;93.94;99958.91;5014380;28;20198;-63
2023/04/09 08:11:46;;;;;;;0.57;0.57;;;;;;;12.69;92.92;99965.19;5013616;28;20209;-63
2023/04/09 08:14:13;;;;;;;0.90;0.90;;;;;;;12.81;93.32;99962.22;5017849;28;20199;-63
2023/04/09 08:16:40;;;;;;;0.50;0.50;;;;;;;12.94;93.19;99954.97;5015638;28;20256;-63
2023/04/09 08:19:09;;;;;;;0.50;0.50;;;;;;;13.04;91.46;99964.09;5013432;28;20293;-63
2023/04/09 08:21:37;;;;;;;0.70;0.70;;;;;;;13.12;90.76;99959.56;5019522;28;20205;-63
2023/04/09 08:24:04;;;;;;;0.50;0.50;;;;;;;13.01;88.67;99959.91;5021718;28;20558;-63
2023/04/09 08:26:31;;;;;;;0.70;0.70;;;;;;;13.11;89.45;99955.34;5015366;28;20305;-63
2023/04/09 08:28:58;;;;;;;0.53;0.53;;;;;;;13.37;90.83;99947.63;5013346;28;20691;-63
2023/04/09 08:31:26;;;;;;;0.63;0.63;;;;;;;13.53;87.05;99956.53;5013249;28;20281;-63
2023/04/09 08:33:52;;;;;;;0.70;0.70;;;;;;;13.87;88.99;99945.88;5013752;28;20240;-63
2023/04/09 08:36:21;;;;;;;0.70;0.70;;;;;;;14.19;89.17;99952.47;5019733;28;20276;-63
2023/04/09 08:38:48;;;;;;;0.50;0.50;;;;;;;14.25;84.30;99948.88;5013138;28;20745;-64
2023/04/09 08:41:19;;;;;;;0.60;0.60;;;;;;;14.22;83.75;99947.22;5014861;28;20711;-63
2023/04/09 08:43:47;;;;;;;0.50;0.50;;;;;;;14.11;84.62;99944.19;5032312;28;20228;-63
2023/04/09 08:46:15;;;;;;;0.50;0.50;;;;;;;14.38;84.62;99943.22;5013235;28;20261;-64
2023/04/09 08:48:44;;;;;;;0.50;0.50;;;;;;;14.57;83.36;99944.19;5012967;28;20249;-63
2023/04/09 08:51:13;;;;;;;0.60;0.60;;;;;;;14.93;81.55;99948.84;5014147;28;20202;-64
2023/04/09 08:53:44;;;;;;;0.40;0.40;;;;;;;15.24;82.54;99947.59;5015392;28;20733;-63
2023/04/09 08:56:12;;;;;;;0.50;0.50;;;;;;;15.22;79.85;99944.22;5011651;28;20290;-64
2023/04/09 08:58:42;;;;;;;0.50;0.50;;;;;;;15.24;79.58;99946.75;5014992;28;20287;-63
2023/04/09 09:01:19;;;;;;;0.50;0.50;;;;;;;15.33;79.10;99943.78;5015464;28;20231;-64
2023/04/09 09:03:54;;;;;;;0.70;0.70;;;;;;;15.12;79.46;99947.25;5026261;28;20316;-63
2023/04/09 09:06:22;;;;;;;0.53;0.53;;;;;;;15.19;80.77;99943.50;5032139;28;20700;-64
2023/04/09 09:09:00;;;;;;;0.50;0.50;;;;;;;15.29;78.64;99934.47;5029679;28;20234;-63
2023/04/09 09:11:27;;;;;;;0.40;0.40;;;;;;;15.61;80.06;99931.44;5032385;28;20267;-64
2023/04/09 09:13:58;;;;;;;0.60;0.60;;;;;;;15.79;78.00;99935.00;5032261;28;20201;-63
2023/04/09 09:16:24;;;;;;;0.60;0.60;;;;;;;15.66;76.56;99926.09;5030229;28;20199;-64
2023/04/09 09:18:51;;;;;;;0.40;0.40;;;;;;;15.82;77.90;99934.88;5030568;28;20220;-63
2023/04/09 09:21:19;;;;;;;0.90;0.90;;;;;;;15.97;75.08;99933.34;5030093;28;20263;-64
2023/04/09 09:23:47;;;;;;;0.40;0.40;;;;;;;16.13;76.62;99934.34;5030505;28;20292;-64
2023/04/09 09:26:17;;;;;;;0.50;0.50;;;;;;;16.34;75.03;99933.41;5031341;28;20213;-64
2023/04/09 09:28:44;;;;;;;0.30;0.30;;;;;;;16.56;74.33;99936.72;5031729;28;20208;-64
2023/04/09 09:31:12;;;;;;;0.60;0.60;;;;;;;16.30;73.40;99937.03;5031753;28;20209;-63
2023/04/09 09:33:39;;;;;;;0.70;0.70;;;;;;;15.55;74.29;99926.53;5029320;28;20201;-64
2023/04/09 09:36:08;;;;;;;0.90;0.90;;;;;;;15.80;75.61;99920.31;5031557;28;20200;-64
2023/04/09 09:38:35;;;;;;;0.53;0.53;;;;;;;15.49;74.30;99916.44;5031463;28;20247;-64
2023/04/09 09:41:18;;;;;;;0.67;0.67;;;;;;;15.68;77.99;99907.00;5031460;28;20204;-63
2023/04/09 09:43:45;;;;;;;0.50;0.50;;;;;;;15.87;76.32;99908.78;5029536;28;20223;-64
2023/04/09 09:46:12;;;;;;;0.50;0.50;;;;;;;16.16;76.95;99909.19;5031338;28;20221;-64
2023/04/09 09:48:39;;;;;;;0.50;0.50;;;;;;;16.13;75.91;99903.31;5030685;28;20205;-64
2023/04/09 09:51:09;;;;;;;0.55;0.55;;;;;;;16.10;74.17;99898.28;5028002;28;20431;-65
2023/04/09 09:53:37;;;;;;;0.50;0.50;;;;;;;16.31;74.36;99918.03;5030293;28;20202;-65
2023/04/09 09:56:05;;;;;;;0.60;0.60;;;;;;;16.09;71.88;99909.56;5031051;28;20197;-64
2023/04/09 09:58:40;;;;;;;0.90;0.90;;;;;;;15.65;72.82;99881.28;5028713;28;20212;-64
2023/04/09 10:01:09;;;;;;;0.50;0.50;;;;;;;15.62;72.66;99906.44;5030605;28;20610;-63
2023/04/09 10:03:38;;;;;;;0.40;0.40;;;;;;;15.63;74.38;99898.63;5017430;28;20226;-65
2023/04/09 10:06:06;;;;;;;1.23;1.23;;;;;;;15.93;74.93;99880.09;5011000;28;20202;-64
2023/04/09 10:08:34;;;;;;;0.50;0.50;;;;;;;16.20;72.25;99899.53;5011990;28;20202;-65
2023/04/09 10:11:02;;;;;;;0.60;0.60;;;;;;;16.28;73.09;99897.47;5030988;28;20260;-65
2023/04/09 10:13:33;;;;;;;0.97;0.97;;;;;;;16.25;71.94;99893.25;5021467;28;20674;-63
2023/04/09 10:16:02;;;;;;;1.63;1.63;;;;;;;16.46;71.42;99891.44;5014050;28;20209;-65
2023/04/09 10:18:32;;;;;;;0.60;0.60;;;;;;;16.47;72.13;99885.34;5019908;28;20697;-64
2023/04/09 10:21:02;;;;;;;0.70;0.70;;;;;;;16.44;71.77;99861.38;5013911;28;20202;-62
2023/04/09 10:23:36;;;;;;;1.03;1.03;;;;;;;16.71;70.93;99873.03;5023023;28;20645;-65
2023/04/09 10:26:04;;;;;;;0.40;0.40;;;;;;;16.77;69.38;99876.16;5017149;28;20198;-65
2023/04/09 10:28:32;;;;;;;0.40;0.40;;;;;;;16.76;70.93;99864.16;5011712;28;20308;-63
2023/04/09 10:30:59;;;;;;;0.43;0.43;;;;;;;16.98;69.32;99870.88;5023704;28;20291;-65
2023/04/09 10:33:28;;;;;;;0.53;0.53;;;;;;;17.24;69.53;99857.47;5020204;28;20684;-64
2023/04/09 10:35:59;;;;;;;0.60;0.60;;;;;;;17.02;67.33;99859.44;5025577;28;20198;-62
2023/04/09 10:38:39;;;;;;;0.50;0.50;;;;;;;16.82;69.10;99856.97;5011214;28;20563;-64
2023/04/09 10:41:21;;;;;;;1.10;1.10;;;;;;;16.85;67.60;99841.28;5011385;28;20209;-64
2023/04/09 10:43:48;;;;;;;0.50;0.50;;;;;;;16.80;66.90;99854.50;5012853;28;20252;-63
2023/04/09 10:46:29;;;;;;;0.47;0.47;;;;;;;16.61;68.14;99849.31;5013092;28;20281;-63
2023/04/09 10:49:12;;;;;;;0.60;0.60;;;;;;;16.80;68.78;99844.13;5010764;28;20197;-64
2023/04/09 10:51:40;;;;;;;0.47;0.47;;;;;;;16.75;65.84;99831.38;5022652;28;20212;-65
2023/04/09 10:54:42;;;;;;;0.47;0.47;;;;;;;16.87;66.78;99844.63;5026023;28;20201;-64
2023/04/09 10:57:17;;;;;;;0.37;0.37;;;;;;;16.82;67.24;99833.69;5019700;28;20665;-63
2023/04/09 10:59:46;;;;;;;0.53;0.53;;;;;;;16.79;63.98;99826.91;5017921;28;20233;-62
2023/04/09 11:02:53;;;;;;;0.60;0.60;;;;;;;16.49;64.75;99829.19;5015929;28;20201;-64
2023/04/09 11:05:28;;;;;;;0.50;0.50;;;;;;;16.61;68.04;99823.44;5009375;28;20662;-63
2023/04/09 11:08:01;;;;;;;0.50;0.50;;;;;;;16.63;63.50;99825.97;5015232;28;20240;-63
2023/04/09 11:10:28;;;;;;;0.70;0.70;;;;;;;16.62;57.84;99813.94;5012897;28;20196;-63
2023/04/09 11:12:55;;;;;;;0.80;0.80;;;;;;;16.50;61.16;99797.22;5023929;28;20206;-65
2023/04/09 11:15:21;;;;;;;0.50;0.50;;;;;;;16.66;60.16;99811.13;5021180;28;20216;-64
2023/04/09 11:17:49;;;;;;;0.50;0.50;;;;;;;16.52;61.09;99803.16;5011609;28;20214;-62
2023/04/09 11:20:17;;;;;;;0.60;0.60;;;;;;;16.83;62.29;99809.47;5014674;28;20209;-63
2023/04/09 11:22:45;;;;;;;0.50;0.50;;;;;;;16.72;58.63;99803.06;5021817;28;20202;-63
2023/04/09 11:25:18;;;;;;;0.40;0.40;;;;;;;16.84;60.22;99783.47;5020094;28;20691;-65
2023/04/09 11:27:46;;;;;;;0.90;0.90;;;;;;;16.79;59.04;99794.09;5022326;28;20275;-63
2023/04/09 11:30:13;;;;;;;0.53;0.53;;;;;;;16.89;57.23;99797.06;5023944;28;20303;-63
2023/04/09 11:32:40;;;;;;;0.53;0.53;;;;;;;16.77;56.03;99788.13;5018243;28;20670;-65
2023/04/09 11:35:12;;;;;;;0.50;0.50;;;;;;;16.95;56.39;99782.97;5027417;28;20291;-65
2023/04/09 11:37:40;;;;;;;0.60;0.60;;;;;;;17.03;56.63;99784.25;5017360;28;20298;-64
2023/04/09 11:40:14;;;;;;;0.73;0.73;;;;;;;16.86;50.80;99773.91;5024726;28;20706;-62